createdAt,value
2022-08-11T00:01:04.884Z,74.00
2022-08-11T00:03:42.502Z,74.60
2022-08-11T00:06:10.625Z,73.90
2022-08-11T00:08:37.566Z,74.20
2022-08-11T00:11:08.127Z,75.00
2022-08-11T00:13:36.949Z,75.60
2022-08-11T00:16:05.094Z,75.00
2022-08-11T00:18:41.022Z,75.40
2022-08-11T00:21:07.991Z,77.30
2022-08-11T00:23:35.066Z,74.10
2022-08-11T00:26:04.811Z,74.30
2022-08-11T00:28:32.681Z,74.80
2022-08-11T00:31:04.859Z,80.30
2022-08-11T00:33:45.224Z,75.30
2022-08-11T00:36:15.027Z,78.10
2022-08-11T00:38:42.979Z,76.40
2022-08-11T00:41:31.402Z,77.00
2022-08-11T00:44:15.960Z,79.50
2022-08-11T00:46:46.791Z,79.00
2022-08-11T00:49:22.973Z,77.80
2022-08-11T00:52:08.717Z,77.90
2022-08-11T00:55:08.002Z,77.80
2022-08-11T00:57:53.506Z,79.90
2022-08-11T01:00:24.123Z,76.00
2022-08-11T01:03:20.879Z,77.80
2022-08-11T01:06:00.436Z,80.10
2022-08-11T01:08:51.178Z,78.80
2022-08-11T01:11:24.119Z,77.60
2022-08-11T01:14:33.586Z,76.50
2022-08-11T01:17:29.072Z,80.10
2022-08-11T01:20:44.970Z,78.80
2022-08-11T01:23:15.783Z,79.70
2022-08-11T01:26:22.775Z,77.40
2022-08-11T01:29:05.088Z,80.50
2022-08-11T01:32:02.899Z,79.80
2022-08-11T01:35:02.899Z,79.20
2022-08-11T01:38:14.215Z,79.30
2022-08-11T01:41:08.625Z,79.60
2022-08-11T01:44:12.728Z,78.70
2022-08-11T01:47:02.645Z,77.70
2022-08-11T01:50:09.457Z,78.10
2022-08-11T01:52:30.961Z,81.10
2022-08-11T01:55:02.036Z,77.90
2022-08-11T01:57:36.158Z,77.20
2022-08-11T02:00:14.449Z,78.60
2022-08-11T02:03:01.924Z,77.10
2022-08-11T02:06:24.151Z,81.00
2022-08-11T02:09:29.294Z,80.80
2022-08-11T02:12:26.588Z,81.00
2022-08-11T02:15:34.628Z,80.00
2022-08-11T02:18:11.019Z,80.70
2022-08-11T02:21:18.670Z,79.60
2022-08-11T02:24:07.911Z,81.30
2022-08-11T02:26:44.759Z,80.60
2022-08-11T02:29:24.934Z,79.20
2022-08-11T02:32:33.630Z,80.10
2022-08-11T02:35:19.120Z,81.00
2022-08-11T02:38:05.978Z,80.40
2022-08-11T02:41:01.556Z,79.10
2022-08-11T02:43:41.067Z,79.10
2022-08-11T02:46:29.005Z,79.00
2022-08-11T02:49:24.172Z,79.50
2022-08-11T02:51:54.198Z,78.80
2022-08-11T02:54:29.837Z,78.30
2022-08-11T02:57:11.631Z,79.10
2022-08-11T02:59:53.692Z,79.40
2022-08-11T03:02:33.196Z,79.10
2022-08-11T03:05:17.735Z,80.00
2022-08-11T03:08:06.454Z,76.60
2022-08-11T03:10:43.861Z,80.40
2022-08-11T03:13:35.391Z,78.80
2022-08-11T03:16:35.384Z,79.60
2022-08-11T03:19:16.129Z,79.90
2022-08-11T03:22:02.325Z,80.40
2022-08-11T03:25:12.365Z,79.30
2022-08-11T03:27:52.727Z,80.70
2022-08-11T03:30:21.489Z,78.50
2022-08-11T03:33:08.394Z,81.40
2022-08-11T03:35:40.661Z,78.00
2022-08-11T03:38:11.318Z,79.00
2022-08-11T03:42:01.247Z,79.20
2022-08-11T03:44:35.777Z,80.90
2022-08-11T03:47:40.095Z,80.10
2022-08-11T03:50:43.530Z,80.80
2022-08-11T03:53:16.409Z,79.10
2022-08-11T03:56:11.514Z,79.10
2022-08-11T03:59:21.104Z,81.40
2022-08-11T04:02:06.842Z,81.80
2022-08-11T04:05:08.818Z,77.40
2022-08-11T04:08:00.919Z,79.50
2022-08-11T04:10:52.016Z,81.50
2022-08-11T04:14:33.829Z,81.40
2022-08-11T04:17:33.619Z,82.00
2022-08-11T04:20:18.519Z,80.30
2022-08-11T04:23:03.371Z,82.20
2022-08-11T04:25:31.148Z,79.50
2022-08-11T04:28:31.496Z,79.10
2022-08-11T04:31:49.588Z,80.90
2022-08-11T04:34:27.153Z,79.00
2022-08-11T04:37:30.639Z,81.40
2022-08-11T04:40:34.391Z,80.90
2022-08-11T04:43:25.254Z,81.80
2022-08-11T04:46:12.275Z,80.90
2022-08-11T04:49:33.975Z,81.30
2022-08-11T04:52:19.914Z,81.90
2022-08-11T04:55:33.589Z,79.80
2022-08-11T04:58:43.527Z,82.30
2022-08-11T05:01:41.602Z,81.30
2022-08-11T05:04:46.151Z,82.30
2022-08-11T05:07:39.919Z,79.60
2022-08-11T05:10:24.642Z,81.80
2022-08-11T05:13:39.157Z,81.40
2022-08-11T05:16:30.770Z,80.30
2022-08-11T05:19:17.425Z,81.00
2022-08-11T05:22:05.937Z,79.70
2022-08-11T05:24:57.350Z,80.40
2022-08-11T05:27:43.723Z,81.40
2022-08-11T05:30:30.671Z,80.20
2022-08-11T05:33:28.379Z,80.10
2022-08-11T05:36:31.029Z,80.90
2022-08-11T05:39:18.377Z,81.70
2022-08-11T05:42:03.691Z,79.90
2022-08-11T05:44:49.011Z,80.00
2022-08-11T05:47:44.165Z,80.00
2022-08-11T05:50:32.767Z,81.30
2022-08-11T05:53:19.325Z,80.10
2022-08-11T05:56:04.740Z,80.10
2022-08-11T05:58:42.344Z,80.00
2022-08-11T06:01:14.355Z,80.80
2022-08-11T06:04:02.875Z,79.90
2022-08-11T06:06:29.862Z,81.00
2022-08-11T06:08:57.540Z,79.90
2022-08-11T06:11:44.326Z,80.10
2022-08-11T06:14:12.373Z,79.50
2022-08-11T06:16:39.367Z,79.90
2022-08-11T06:19:06.282Z,80.40
2022-08-11T06:21:34.734Z,82.30
2022-08-11T06:24:03.917Z,84.80
2022-08-11T06:26:30.866Z,83.10
2022-08-11T06:28:58.611Z,82.40
2022-08-11T06:31:25.850Z,82.70
2022-08-11T06:34:27.282Z,83.40
2022-08-11T06:36:59.532Z,84.10
2022-08-11T06:39:52.959Z,82.70
2022-08-11T06:42:45.940Z,84.00
2022-08-11T06:45:30.415Z,85.80
2022-08-11T06:48:00.895Z,86.40
2022-08-11T06:50:46.867Z,85.10
2022-08-11T06:53:15.415Z,84.60
2022-08-11T06:56:01.853Z,84.60
2022-08-11T06:58:52.243Z,86.10
2022-08-11T07:01:37.116Z,85.30
2022-08-11T07:04:09.439Z,86.30
2022-08-11T07:07:23.850Z,85.70
2022-08-11T07:10:44.838Z,86.90
2022-08-11T07:13:38.386Z,85.70
2022-08-11T07:16:17.363Z,83.70
2022-08-11T07:19:04.648Z,84.30
2022-08-11T07:22:01.823Z,84.50
2022-08-11T07:24:59.836Z,84.00
2022-08-11T07:28:05.513Z,83.60
2022-08-11T07:30:33.430Z,83.90
2022-08-11T07:33:01.851Z,82.40
2022-08-11T07:35:33.246Z,82.40
2022-08-11T07:38:07.299Z,83.40
2022-08-11T07:40:35.355Z,81.50
2022-08-11T07:43:02.317Z,80.10
2022-08-11T07:45:47.894Z,78.80
2022-08-11T07:48:36.275Z,77.00
2022-08-11T07:51:21.843Z,74.40
2022-08-11T07:53:57.831Z,73.10
2022-08-11T07:56:38.572Z,71.00
2022-08-11T08:00:03.466Z,68.40
2022-08-11T08:02:44.163Z,69.20
2022-08-11T08:05:29.567Z,66.70
2022-08-11T08:08:14.930Z,59.40
2022-08-11T08:11:02.646Z,62.10
2022-08-11T08:13:48.019Z,61.20
2022-08-11T08:16:35.728Z,56.70
2022-08-11T08:19:02.697Z,45.60
2022-08-11T08:21:29.621Z,50.80
2022-08-11T08:23:56.919Z,53.10
2022-08-11T08:26:42.363Z,47.50
2022-08-11T08:29:37.139Z,47.80
2022-08-11T08:32:04.279Z,51.20
2022-08-11T08:34:32.368Z,49.40
2022-08-11T08:37:00.799Z,49.40
2022-08-11T08:39:27.851Z,48.50
2022-08-11T08:41:56.337Z,45.70
2022-08-11T08:44:41.476Z,45.50
2022-08-11T08:47:13.177Z,41.30
2022-08-11T08:49:42.193Z,41.30
2022-08-11T08:52:21.721Z,44.50
2022-08-11T08:55:01.273Z,39.50
2022-08-11T08:57:28.710Z,41.40
2022-08-11T08:59:55.771Z,41.60
2022-08-11T09:02:33.965Z,39.50
2022-08-11T09:05:05.392Z,40.40
2022-08-11T09:07:39.550Z,39.10
2022-08-11T09:10:08.859Z,41.80
2022-08-11T09:12:38.901Z,41.50
2022-08-11T09:15:08.184Z,34.90
2022-08-11T09:17:38.814Z,37.30
2022-08-11T09:20:11.887Z,35.10
2022-08-11T09:23:41.320Z,37.90
2022-08-11T09:26:05.687Z,32.80
2022-08-11T09:28:32.769Z,37.10
2022-08-11T09:31:01.242Z,34.50
2022-08-11T09:33:29.088Z,36.30
2022-08-11T09:35:56.114Z,37.10
2022-08-11T09:38:47.365Z,37.30
2022-08-11T09:41:16.999Z,36.10
2022-08-11T09:44:04.396Z,36.20
2022-08-11T09:46:33.219Z,37.30
2022-08-11T09:49:00.610Z,37.00
2022-08-11T09:51:31.343Z,35.10
2022-08-11T09:54:03.441Z,35.60
2022-08-11T09:56:49.226Z,34.50
2022-08-11T09:59:21.672Z,36.80
2022-08-11T10:01:51.641Z,35.10
2022-08-11T10:04:21.772Z,37.10
2022-08-11T10:07:04.105Z,35.80
2022-08-11T10:09:38.619Z,35.40
2022-08-11T10:12:08.904Z,35.40
2022-08-11T10:14:55.711Z,35.10
2022-08-11T10:17:23.096Z,35.10
2022-08-11T10:20:04.863Z,35.20
2022-08-11T10:22:51.794Z,34.30
2022-08-11T10:25:37.096Z,35.20
2022-08-11T10:28:33.155Z,34.90
2022-08-11T10:31:12.523Z,35.20
2022-08-11T10:33:59.328Z,34.40
2022-08-11T10:36:43.098Z,34.60
2022-08-11T10:39:11.979Z,31.70
2022-08-11T10:42:08.549Z,33.20
2022-08-11T10:44:55.112Z,33.50
2022-08-11T10:47:44.416Z,31.10
2022-08-11T10:50:34.996Z,31.50
2022-08-11T10:53:20.365Z,32.80
2022-08-11T10:56:06.060Z,31.70
2022-08-11T10:58:51.683Z,31.60
2022-08-11T11:01:32.142Z,32.20
2022-08-11T11:04:01.603Z,30.10
2022-08-11T11:06:35.929Z,29.80
2022-08-11T11:09:08.986Z,30.60
2022-08-11T11:11:56.829Z,29.60
2022-08-11T11:14:49.949Z,29.40
2022-08-11T11:17:56.819Z,28.90
2022-08-11T11:20:36.054Z,27.20
2022-08-11T11:23:47.590Z,27.10
2022-08-11T11:26:59.885Z,24.50
2022-08-11T11:29:48.395Z,24.80
2022-08-11T11:32:26.807Z,25.10
2022-08-11T11:35:15.686Z,25.10
2022-08-11T11:38:00.964Z,24.30
2022-08-11T11:40:32.478Z,26.50
2022-08-11T11:42:59.793Z,27.90
2022-08-11T11:45:26.784Z,26.50
2022-08-11T11:47:55.484Z,27.90
2022-08-11T11:50:35.566Z,25.40
2022-08-11T11:53:04.818Z,23.50
2022-08-11T11:55:31.892Z,23.90
2022-08-11T11:58:22.190Z,25.10
2022-08-11T12:01:07.784Z,23.70
2022-08-11T12:03:34.866Z,26.80
2022-08-11T12:06:02.159Z,25.10
2022-08-11T12:08:29.171Z,25.80
2022-08-11T12:11:18.376Z,22.90
2022-08-11T12:13:46.320Z,25.10
2022-08-11T12:16:33.722Z,24.60
2022-08-11T12:19:05.519Z,23.10
2022-08-11T12:21:32.517Z,23.40
2022-08-11T12:24:19.576Z,24.00
2022-08-11T12:27:14.722Z,22.20
2022-08-11T12:29:36.527Z,23.70
2022-08-11T12:32:08.310Z,24.50
2022-08-11T12:34:35.603Z,22.00
2022-08-11T12:37:05.779Z,23.50
2022-08-11T12:40:15.622Z,22.20
2022-08-11T12:42:59.413Z,22.50
2022-08-11T12:45:31.701Z,22.60
2022-08-11T12:48:59.192Z,23.50
2022-08-11T12:52:00.524Z,20.00
2022-08-11T12:54:40.766Z,22.00
2022-08-11T12:57:45.946Z,20.00
2022-08-11T13:00:31.951Z,20.00
2022-08-11T13:03:17.175Z,21.10
2022-08-11T13:05:45.274Z,22.30
2022-08-11T13:08:14.449Z,21.20
2022-08-11T13:11:00.056Z,21.60
2022-08-11T13:13:55.043Z,21.10
2022-08-11T13:16:15.160Z,21.90
2022-08-11T13:18:42.703Z,21.40
2022-08-11T13:21:20.670Z,23.40
2022-08-11T13:23:59.728Z,21.70
2022-08-11T13:26:47.487Z,21.70
2022-08-11T13:29:27.586Z,21.30
2022-08-11T13:31:56.248Z,21.20
2022-08-11T13:34:24.263Z,21.10
2022-08-11T13:36:52.792Z,22.50
2022-08-11T13:39:24.215Z,21.90
2022-08-11T13:41:52.382Z,21.70
2022-08-11T13:44:25.230Z,20.00
2022-08-11T13:46:55.377Z,21.40
2022-08-11T13:49:22.425Z,20.30
2022-08-11T13:51:49.860Z,19.90
2022-08-11T13:54:21.614Z,19.90
2022-08-11T13:56:50.099Z,19.90
2022-08-11T13:59:23.057Z,19.70
2022-08-11T14:02:20.088Z,19.90
2022-08-11T14:05:02.298Z,20.80
2022-08-11T14:07:36.953Z,19.50
2022-08-11T14:10:04.406Z,19.90
2022-08-11T14:12:50.828Z,19.90
2022-08-11T14:15:22.778Z,20.00
2022-08-11T14:17:54.211Z,19.00
2022-08-11T14:20:40.412Z,18.50
2022-08-11T14:23:11.006Z,20.00
2022-08-11T14:26:01.895Z,19.50
2022-08-11T14:28:37.540Z,20.00
2022-08-11T14:31:09.481Z,20.00
2022-08-11T14:33:58.037Z,21.00
2022-08-11T14:36:27.204Z,20.00
2022-08-11T14:38:54.209Z,20.00
2022-08-11T14:42:10.364Z,20.00
2022-08-11T14:44:45.240Z,19.70
2022-08-11T14:47:24.035Z,20.00
2022-08-11T14:50:05.033Z,19.90
2022-08-11T14:52:38.495Z,19.90
2022-08-11T14:55:25.025Z,19.80
2022-08-11T14:57:56.138Z,19.80
2022-08-11T15:00:24.041Z,20.70
2022-08-11T15:03:13.161Z,19.70
2022-08-11T15:05:58.378Z,19.80
2022-08-11T15:08:46.480Z,19.40
2022-08-11T15:11:32.838Z,19.70
2022-08-11T15:14:01.261Z,19.70
2022-08-11T15:16:47.283Z,19.70
2022-08-11T15:19:14.384Z,19.70
2022-08-11T15:21:59.938Z,19.70
2022-08-11T15:24:28.013Z,19.60
2022-08-11T15:27:16.363Z,20.00
2022-08-11T15:30:01.691Z,19.50
2022-08-11T15:32:47.115Z,20.80
2022-08-11T15:35:33.740Z,19.50
2022-08-11T15:38:06.191Z,19.60
2022-08-11T15:40:55.547Z,19.40
2022-08-11T15:43:46.951Z,19.40
2022-08-11T15:46:23.302Z,19.40
2022-08-11T15:49:10.405Z,19.80
2022-08-11T15:51:42.473Z,20.20
2022-08-11T15:54:17.596Z,19.40
2022-08-11T15:56:49.715Z,19.30
2022-08-11T15:59:42.740Z,19.30
2022-08-11T16:02:30.846Z,19.30
2022-08-11T16:04:58.902Z,19.40
2022-08-11T16:07:31.516Z,20.00
2022-08-11T16:10:09.758Z,19.30
2022-08-11T16:12:41.926Z,19.30
2022-08-11T16:15:28.985Z,19.20
2022-08-11T16:18:03.785Z,19.20
2022-08-11T16:20:31.867Z,19.40
2022-08-11T16:23:01.902Z,19.20
2022-08-11T16:27:03.923Z,19.20
2022-08-11T16:28:17.053Z,20.00
2022-08-11T16:30:46.510Z,19.20
2022-08-11T16:33:48.485Z,19.50
2022-08-11T16:36:18.824Z,19.20
2022-08-11T16:38:45.863Z,19.30
2022-08-11T16:41:15.150Z,20.30
2022-08-11T16:44:04.793Z,20.20
2022-08-11T16:46:50.262Z,19.50
2022-08-11T16:49:19.783Z,20.00
2022-08-11T16:51:46.816Z,19.70
2022-08-11T16:54:14.008Z,20.00
2022-08-11T16:56:48.091Z,19.80
2022-08-11T16:59:24.269Z,19.90
2022-08-11T17:01:57.130Z,21.20
2022-08-11T17:05:06.230Z,20.00
2022-08-11T17:07:51.894Z,19.60
2022-08-11T17:10:55.691Z,20.50
2022-08-11T17:13:42.898Z,19.60
2022-08-11T17:16:12.903Z,19.80
2022-08-11T17:18:49.142Z,21.00
2022-08-11T17:21:17.986Z,20.50
2022-08-11T17:23:51.810Z,20.70
2022-08-11T17:26:55.653Z,20.30
2022-08-11T17:29:54.084Z,20.00
2022-08-11T17:32:56.721Z,20.30
2022-08-11T17:35:33.592Z,20.80
2022-08-11T17:38:02.301Z,21.10
2022-08-11T17:40:29.332Z,21.00
2022-08-11T17:43:15.740Z,21.00
2022-08-11T17:46:02.669Z,21.40
2022-08-11T17:48:31.820Z,21.50
2022-08-11T17:51:03.251Z,21.70
2022-08-11T17:54:17.307Z,22.20
2022-08-11T17:56:57.907Z,23.40
2022-08-11T17:59:48.859Z,22.50
2022-08-11T18:02:35.265Z,22.70
2022-08-11T18:05:02.314Z,22.70
2022-08-11T18:07:47.617Z,22.80
2022-08-11T18:10:35.634Z,23.00
2022-08-11T18:13:24.859Z,23.10
2022-08-11T18:16:10.072Z,23.40
2022-08-11T18:18:55.417Z,23.70
2022-08-11T18:21:40.926Z,23.80
2022-08-11T18:24:27.909Z,24.00
2022-08-11T18:27:13.861Z,24.00
2022-08-11T18:29:59.956Z,24.10
2022-08-11T18:32:50.088Z,24.20
2022-08-11T18:35:37.298Z,24.50
2022-08-11T18:38:22.869Z,24.50
2022-08-11T18:41:08.220Z,25.00
2022-08-11T18:43:55.159Z,25.40
2022-08-11T18:46:40.700Z,25.30
2022-08-11T18:50:02.353Z,25.80
2022-08-11T18:52:39.780Z,25.90
2022-08-11T18:55:28.560Z,26.30
2022-08-11T18:58:14.652Z,26.30
2022-08-11T19:01:00.675Z,26.50
2022-08-11T19:03:48.585Z,26.60
2022-08-11T19:06:40.017Z,26.90
2022-08-11T19:09:28.488Z,26.80
2022-08-11T19:12:13.870Z,29.20
2022-08-11T19:14:59.151Z,27.40
2022-08-11T19:17:46.393Z,27.50
2022-08-11T19:20:36.387Z,28.10
2022-08-11T19:23:22.176Z,28.10
2022-08-11T19:26:07.574Z,28.10
2022-08-11T19:28:53.542Z,28.40
2022-08-11T19:31:42.510Z,29.40
2022-08-11T19:34:37.959Z,30.00
2022-08-11T19:37:25.445Z,29.90
2022-08-11T19:40:19.209Z,30.20
2022-08-11T19:43:14.910Z,31.60
2022-08-11T19:46:12.215Z,32.00
2022-08-11T19:48:57.784Z,31.20
2022-08-11T19:51:43.342Z,30.80
2022-08-11T19:54:29.244Z,31.50
2022-08-11T19:57:14.828Z,31.40
2022-08-11T20:00:00.240Z,32.40
2022-08-11T20:02:47.678Z,31.90
2022-08-11T20:05:33.075Z,34.50
2022-08-11T20:08:18.942Z,32.80
2022-08-11T20:11:05.295Z,34.00
2022-08-11T20:13:51.125Z,33.20
2022-08-11T20:16:37.911Z,33.80
2022-08-11T20:19:25.946Z,33.80
2022-08-11T20:22:29.486Z,34.00
2022-08-11T20:25:15.042Z,34.00
2022-08-11T20:28:01.354Z,34.20
2022-08-11T20:30:48.227Z,34.60
2022-08-11T20:33:37.227Z,36.20
2022-08-11T20:36:23.108Z,35.10
2022-08-11T20:39:08.504Z,36.20
2022-08-11T20:41:59.334Z,36.00
2022-08-11T20:44:45.554Z,37.60
2022-08-11T20:47:30.932Z,37.60
2022-08-11T20:50:19.345Z,37.60
2022-08-11T20:53:05.948Z,37.60
2022-08-11T20:55:53.520Z,42.50
2022-08-11T21:01:45.822Z,37.40
2022-08-11T21:04:32.629Z,38.60
2022-08-11T21:07:28.722Z,39.50
2022-08-11T21:10:23.753Z,40.40
2022-08-11T21:13:24.163Z,41.60
2022-08-11T21:16:16.336Z,41.20
2022-08-11T21:19:11.649Z,42.00
2022-08-11T21:21:57.074Z,42.00
2022-08-11T21:24:47.193Z,42.40
2022-08-11T21:27:34.432Z,43.60
2022-08-11T21:30:19.670Z,45.20
2022-08-11T21:33:05.091Z,43.60
2022-08-11T21:35:50.812Z,44.10
2022-08-11T21:38:36.201Z,44.00
2022-08-11T21:41:22.059Z,44.30
2022-08-11T21:44:08.574Z,45.00
2022-08-11T21:46:55.003Z,46.10
2022-08-11T21:49:40.325Z,46.40
2022-08-11T21:52:25.671Z,45.80
2022-08-11T21:55:11.003Z,46.70
2022-08-11T21:57:56.247Z,46.90
2022-08-11T22:00:41.603Z,47.00
2022-08-11T22:03:26.842Z,47.80
2022-08-11T22:06:12.758Z,47.70
2022-08-11T22:08:58.046Z,49.00
2022-08-11T22:11:43.483Z,48.40
2022-08-11T22:14:29.041Z,48.60
2022-08-11T22:17:14.405Z,49.00
2022-08-11T22:20:00.808Z,49.10
2022-08-11T22:22:51.880Z,49.30
2022-08-11T22:25:46.460Z,49.80
2022-08-11T22:28:37.468Z,51.40
2022-08-11T22:31:23.836Z,50.90
2022-08-11T22:34:09.275Z,51.20
2022-08-11T22:36:54.637Z,52.00
2022-08-11T22:39:39.983Z,52.50
2022-08-11T22:42:33.251Z,53.10
2022-08-11T22:45:19.992Z,52.80
2022-08-11T22:48:06.151Z,53.20
2022-08-11T22:50:52.142Z,55.90
2022-08-11T22:53:57.521Z,53.60
2022-08-11T22:56:43.087Z,54.80
2022-08-11T22:59:28.470Z,55.00
2022-08-11T23:02:13.938Z,56.40
2022-08-11T23:04:59.787Z,57.00
2022-08-11T23:07:51.047Z,57.00
2022-08-11T23:10:41.257Z,57.80
2022-08-11T23:13:27.369Z,58.10
2022-08-11T23:16:15.928Z,58.60
2022-08-11T23:19:01.200Z,60.60
2022-08-11T23:21:46.937Z,59.00
2022-08-11T23:24:32.695Z,58.90
2022-08-11T23:27:17.982Z,60.30
2022-08-11T23:30:03.326Z,60.10
2022-08-11T23:32:48.698Z,60.20
2022-08-11T23:35:40.462Z,60.20
2022-08-11T23:38:39.762Z,60.10
2022-08-11T23:41:24.971Z,60.10
2022-08-11T23:44:10.386Z,60.00
2022-08-11T23:46:55.791Z,60.70
2022-08-11T23:49:41.207Z,62.00
2022-08-11T23:52:26.707Z,63.70
2022-08-11T23:55:12.170Z,62.20
2022-08-11T23:57:57.606Z,62.30
